Terminal Aerodrome Forecast
Issued by NWS Shreveport, LA

Home | Current Version | Previous Version | Text Only | Print | Product List | Glossary On
Versions: 1 2 3 4 5 6 7 8 9 10 11 12 13 14 15 16 17 18 19 20 21
748
FTUS44 KSHV 181720
TAFMLU
TAF
KMLU 181720Z 1818/1918 26006KT P6SM VCSH BKN070 BKN150 BKN250
     FM190000 00000KT P6SM SCT250
      TEMPO 1910/1913 6SM BR
     FM191300 VRB04KT P6SM BKN050 BKN250=

USA.gov is the U.S. government's official web portal to all federal, state and local government web resources and services.